createdAt,value
2019-04-03T00:00:39.880Z,61.63
2019-04-03T00:03:20.933Z,61.53
2019-04-03T00:04:19.794Z,61.53
2019-04-03T00:05:18.718Z,61.63
2019-04-03T00:06:17.578Z,62.1
2019-04-03T00:07:16.552Z,62.59
2019-04-03T00:09:08.251Z,62.49
2019-04-03T00:10:08.614Z,62.87
2019-04-03T00:11:09.357Z,62.59
2019-04-03T00:12:06.698Z,62.96
2019-04-03T00:14:47.758Z,62.1
2019-04-03T00:17:28.434Z,63.73
2019-04-03T00:20:09.223Z,65.84
2019-04-03T00:21:08.304Z,66.58
2019-04-03T00:22:07.691Z,67.34
2019-04-03T00:23:06.707Z,68.49
2019-04-03T00:24:05.545Z,68.97
2019-04-03T00:26:30.466Z,70.31
2019-04-03T00:27:27.639Z,70.6
2019-04-03T00:28:26.663Z,71.08
2019-04-03T00:29:25.487Z,72.42
2019-04-03T00:30:24.336Z,72.61
2019-04-03T00:31:25.218Z,73.57
2019-04-03T00:32:27.906Z,74.05
2019-04-03T00:33:26.756Z,74.05
2019-04-03T00:34:25.613Z,74.05
2019-04-03T00:35:24.583Z,74.72
2019-04-03T00:36:23.829Z,75.93
2019-04-03T00:37:23.167Z,75.87
2019-04-03T00:38:20.913Z,75.83
2019-04-03T00:39:19.888Z,76.31
2019-04-03T00:40:18.631Z,76.31
2019-04-03T00:41:17.407Z,76.79
2019-04-03T00:42:16.276Z,77.08
2019-04-03T00:43:15.068Z,77.65
2019-04-03T00:44:13.944Z,78.03
2019-04-03T00:45:12.843Z,78.32
2019-04-03T00:46:11.645Z,78.99
2019-04-03T00:47:10.550Z,79.47
2019-04-03T00:48:09.465Z,80.24
2019-04-03T00:49:08.282Z,79.95
2019-04-03T00:50:07.099Z,81
2019-04-03T00:51:05.887Z,81.29
2019-04-03T00:52:04.764Z,81.57
2019-04-03T00:53:03.487Z,81.29
2019-04-03T00:54:02.320Z,81.29
2019-04-03T00:55:01.198Z,81.34
2019-04-03T00:56:00.284Z,81.67
2019-04-03T00:56:59.054Z,80.9
2019-04-03T00:57:59.281Z,80.81
2019-04-03T01:00:39.736Z,80.24
2019-04-03T01:01:38.834Z,80.9
2019-04-03T01:02:37.715Z,81.1
2019-04-03T01:03:36.530Z,80.81
2019-04-03T01:04:35.355Z,81.38
2019-04-03T01:05:34.631Z,81.57
2019-04-03T01:06:33.662Z,81.2
2019-04-03T01:07:32.618Z,81.1
2019-04-03T01:08:31.441Z,81.29
2019-04-03T01:09:30.420Z,81
2019-04-03T01:10:29.608Z,81.48
2019-04-03T01:11:28.815Z,81.38
2019-04-03T01:12:26.904Z,81.77
2019-04-03T01:13:25.899Z,81.77
2019-04-03T01:16:53.652Z,83.54
2019-04-03T01:19:36.702Z,82.68
2019-04-03T01:20:34.548Z,83.54
2019-04-03T01:21:32.490Z,83.45
2019-04-03T01:22:31.474Z,83.36
2019-04-03T01:23:30.419Z,83.45
2019-04-03T01:24:29.214Z,83.36
2019-04-03T01:25:31.233Z,83.83
2019-04-03T01:28:12.046Z,84.02
2019-04-03T01:29:12.575Z,84.02
2019-04-03T01:30:09.885Z,84.5
2019-04-03T01:31:08.777Z,84.69
2019-04-03T01:32:07.695Z,85.27
2019-04-03T01:33:06.997Z,85.55
2019-04-03T01:34:05.871Z,85.89
2019-04-03T01:35:04.731Z,85.71
2019-04-03T01:38:43.882Z,85.55
2019-04-03T01:39:42.837Z,85.55
2019-04-03T01:41:40.942Z,85.84
2019-04-03T01:42:39.800Z,85.75
2019-04-03T01:44:39.707Z,85.8
2019-04-03T01:45:38.479Z,85.32
2019-04-03T01:46:37.393Z,85.61
2019-04-03T01:47:36.520Z,85.41
2019-04-03T01:50:07.546Z,85.08
2019-04-03T01:52:47.949Z,85.55
2019-04-03T01:53:46.679Z,85.41
2019-04-03T02:05:17.452Z,86.57
2019-04-03T02:06:16.655Z,86.57
2019-04-03T02:07:15.518Z,86.94
2019-04-03T02:08:15.098Z,86.66
2019-04-03T02:10:54.962Z,87.43
2019-04-03T02:11:54.180Z,86.94
2019-04-03T02:12:52.870Z,86.57
2019-04-03T02:15:08.178Z,86.66
2019-04-03T02:16:07.134Z,87.14
2019-04-03T02:17:05.922Z,87.23
2019-04-03T02:18:04.826Z,87.33
2019-04-03T02:19:03.798Z,87.33
2019-04-03T02:20:02.502Z,87.62
2019-04-03T02:21:01.452Z,87.43
2019-04-03T02:22:00.502Z,87.43
2019-04-03T02:23:00.229Z,87.33
2019-04-03T02:23:59.562Z,87.43
2019-04-03T02:24:57.735Z,87.33
2019-04-03T02:25:56.459Z,86.66
2019-04-03T02:26:55.299Z,86.41
2019-04-03T02:27:54.437Z,86.57
2019-04-03T02:28:53.206Z,86.66
2019-04-03T02:29:52.179Z,86.94
2019-04-03T02:30:51.229Z,86.61
2019-04-03T02:31:52.598Z,86.61
2019-04-03T02:32:48.996Z,86.85
2019-04-03T02:33:47.831Z,86.66
2019-04-03T02:34:46.734Z,87.33
2019-04-03T02:35:45.570Z,88.19
2019-04-03T02:36:45.450Z,88.19
2019-04-03T02:37:43.461Z,87.76
2019-04-03T02:38:42.341Z,87.27
2019-04-03T02:39:41.272Z,87.23
2019-04-03T02:40:40.374Z,87.52
2019-04-03T02:41:38.995Z,87.95
2019-04-03T02:42:40.197Z,88.29
2019-04-03T02:43:37.282Z,88.67
2019-04-03T02:44:36.234Z,88.86
2019-04-03T02:45:35.056Z,88.19
2019-04-03T02:46:34.146Z,88.19
2019-04-03T02:47:34.096Z,88
2019-04-03T02:48:31.999Z,88.09
2019-04-03T02:49:30.870Z,88.29
2019-04-03T02:50:29.961Z,88.86
2019-04-03T02:51:28.713Z,89.72
2019-04-03T02:52:27.611Z,90.01
2019-04-03T02:53:27.424Z,89.24
2019-04-03T02:54:25.295Z,89.72
2019-04-03T02:55:24.205Z,89.24
2019-04-03T02:56:23.029Z,89.05
2019-04-03T02:57:21.901Z,89.34
2019-04-03T02:58:21.903Z,89.34
2019-04-03T02:59:19.885Z,89.05
2019-04-03T03:00:19.478Z,88.67
2019-04-03T03:01:18.669Z,88.86
2019-04-03T03:02:17.396Z,88.86
2019-04-03T03:03:17.481Z,89.72
2019-04-03T03:04:15.504Z,89.34
2019-04-03T03:05:14.950Z,89.43
2019-04-03T03:06:13.890Z,89.34
2019-04-03T03:07:12.827Z,89.91
2019-04-03T03:08:11.675Z,89.62
2019-04-03T03:09:11.074Z,89.62
2019-04-03T03:10:09.344Z,89.62
2019-04-03T03:11:08.207Z,89.43
2019-04-03T03:12:07.023Z,89.81
2019-04-03T03:13:05.948Z,90.58
2019-04-03T03:14:07.169Z,90.01
2019-04-03T03:15:03.732Z,90.87
2019-04-03T03:16:02.626Z,91.06
2019-04-03T03:17:01.442Z,91.06
2019-04-03T03:18:00.431Z,91.44
2019-04-03T03:19:00.441Z,91.53
2019-04-03T03:19:58.186Z,91.83
2019-04-03T03:20:57.299Z,91.63
2019-04-03T03:21:56.060Z,91.16
2019-04-03T03:22:55.005Z,91.53
2019-04-03T03:23:55.797Z,91.06
2019-04-03T03:24:52.542Z,90.77
2019-04-03T03:25:51.397Z,90.2
2019-04-03T03:26:50.273Z,90.77
2019-04-03T03:27:49.070Z,90.1
2019-04-03T03:28:48.073Z,90.1
2019-04-03T03:29:47.418Z,90.2
2019-04-03T03:30:55.366Z,90.2
2019-04-03T03:32:04.222Z,90.01
2019-04-03T03:32:44.025Z,90.67
2019-04-03T03:33:42.900Z,90.48
2019-04-03T03:34:52.675Z,90.48
2019-04-03T03:35:45.176Z,90.96
2019-04-03T03:36:39.330Z,91.92
2019-04-03T03:37:38.770Z,91.92
2019-04-03T03:38:39.330Z,91.35
2019-04-03T03:39:36.728Z,91.25
2019-04-03T03:40:35.798Z,91.16
2019-04-03T03:41:34.467Z,90.39
2019-04-03T03:42:33.244Z,90.3
2019-04-03T03:43:32.273Z,91.16
2019-04-03T03:44:31.631Z,91.92
2019-04-03T03:45:30.461Z,92.25
2019-04-03T03:46:29.467Z,92.16
2019-04-03T03:47:27.992Z,92.11
2019-04-03T03:48:26.807Z,91.92
2019-04-03T03:49:25.561Z,91.92
2019-04-03T03:50:25.037Z,92.21
2019-04-03T03:51:23.242Z,92.49
2019-04-03T03:52:22.221Z,92.64
2019-04-03T03:53:21.233Z,92.4
2019-04-03T03:54:20.489Z,92.02
2019-04-03T03:55:22.649Z,92.21
2019-04-03T03:56:17.962Z,91.78
2019-04-03T03:57:16.790Z,91.16
2019-04-03T03:58:16.155Z,91.73
2019-04-03T03:59:17.509Z,91.83
2019-04-03T04:00:13.906Z,92.21
2019-04-03T04:02:15.992Z,91.78
2019-04-03T04:03:15.216Z,92.35
2019-04-03T04:04:15.559Z,92.49
2019-04-03T04:05:13.300Z,92.3
2019-04-03T04:06:12.300Z,92.3
2019-04-03T04:07:13.452Z,90.92
2019-04-03T04:08:12.545Z,91.35
2019-04-03T04:09:11.462Z,90.87
2019-04-03T04:10:10.674Z,90.2
2019-04-03T04:11:09.756Z,91.25
2019-04-03T04:12:08.868Z,91.73
2019-04-03T04:13:07.663Z,91.44
2019-04-03T04:14:06.444Z,92.11
2019-04-03T04:15:05.570Z,92.11
2019-04-03T04:16:05.152Z,92.25
2019-04-03T04:17:03.755Z,93.02
2019-04-03T04:18:03.110Z,92.83
2019-04-03T04:19:01.969Z,92.64
2019-04-03T04:20:04.702Z,93.12
2019-04-03T04:20:59.642Z,93.12
2019-04-03T04:21:58.559Z,93.21
2019-04-03T04:22:57.608Z,93.79
2019-04-03T04:23:57.265Z,94.17
2019-04-03T04:24:55.443Z,94.07
2019-04-03T04:25:54.546Z,94.36
2019-04-03T04:26:53.413Z,94.55
2019-04-03T04:27:52.534Z,94.65
2019-04-03T04:28:52.239Z,94.55
2019-04-03T04:29:51.111Z,94.74
2019-04-03T04:30:59.626Z,95.03
2019-04-03T04:31:58.464Z,94.93
2019-04-03T04:32:57.343Z,94.93
2019-04-03T04:33:56.243Z,94.74
2019-04-03T04:34:55.076Z,94.74
2019-04-03T04:37:20.102Z,95.51
2019-04-03T04:38:18.929Z,95.22
2019-04-03T04:39:17.773Z,96.08
2019-04-03T04:40:16.618Z,96.94
2019-04-03T04:41:15.441Z,98.18
2019-04-03T04:42:14.419Z,98.85
2019-04-03T04:43:13.186Z,97.8
2019-04-03T04:44:14.259Z,96.56
2019-04-03T04:45:11.742Z,96.94
2019-04-03T04:46:09.734Z,97.9
2019-04-03T04:48:51.477Z,97.04
2019-04-03T04:49:48.978Z,97.13
2019-04-03T04:50:47.976Z,96.66
2019-04-03T05:04:31.253Z,97.13
2019-04-03T05:05:30.979Z,97.52
2019-04-03T05:06:29.950Z,97.13
2019-04-03T05:07:28.825Z,96.66
2019-04-03T05:08:28.212Z,96.66
2019-04-03T05:09:27.013Z,97.23
2019-04-03T05:10:25.927Z,97.13
2019-04-03T05:11:24.924Z,97.13
2019-04-03T05:12:23.635Z,96.18
2019-04-03T05:13:22.542Z,95.79
2019-04-03T05:14:21.409Z,94.65
2019-04-03T05:15:23.384Z,95.22
2019-04-03T05:16:20.390Z,94.74
2019-04-03T05:17:18.314Z,94.74
2019-04-03T05:18:17.148Z,94.26
2019-04-03T05:19:18.828Z,94.17
2019-04-03T05:20:14.962Z,93.31
2019-04-03T05:21:13.896Z,93.12
2019-04-03T05:22:12.764Z,92.83
2019-04-03T05:23:11.817Z,95.03
2019-04-03T05:24:13.578Z,94.93
2019-04-03T05:25:09.783Z,95.32
2019-04-03T05:26:08.703Z,94.36
2019-04-03T05:27:08.330Z,94.84
2019-04-03T05:28:07.185Z,93.4
2019-04-03T05:29:06.016Z,93.12
2019-04-03T05:30:05.777Z,94.07
2019-04-03T05:31:03.858Z,95.41
2019-04-03T05:32:03.115Z,94.93
2019-04-03T05:33:01.790Z,94.93
2019-04-03T05:34:00.777Z,95.12
2019-04-03T05:34:59.696Z,97.52
2019-04-03T05:35:58.608Z,99.9
2019-04-03T05:36:57.487Z,99.24
2019-04-03T05:37:56.721Z,97.61
2019-04-03T05:38:55.391Z,99.99
2019-04-03T05:39:55.484Z,99.99
2019-04-03T05:40:54.638Z,99.99
2019-04-03T05:41:52.664Z,99.99
2019-04-03T05:42:51.743Z,99.99
2019-04-03T05:43:50.808Z,99.99
2019-04-03T05:44:49.707Z,99.99
2019-04-03T05:45:48.812Z,99.99
2019-04-03T05:46:47.646Z,99.99
2019-04-03T05:47:46.599Z,99.99
2019-04-03T05:48:45.978Z,99.99
2019-04-03T05:49:46.394Z,99.99
2019-04-03T05:50:43.137Z,99.99
2019-04-03T05:51:42.268Z,99.48
2019-04-03T05:52:40.903Z,97.56
2019-04-03T05:53:39.948Z,97.66
2019-04-03T05:54:39.275Z,96.13
2019-04-03T05:55:38.058Z,95.94
2019-04-03T05:56:36.339Z,95.07
2019-04-03T05:57:35.093Z,94.5
2019-04-03T05:58:34.174Z,93.55
2019-04-03T05:59:33.715Z,95.17
2019-04-03T06:00:32.343Z,94.89
2019-04-03T06:01:31.336Z,94.5
2019-04-03T06:02:30.226Z,94.21
2019-04-03T06:03:39.121Z,94.65
2019-04-03T06:04:28.157Z,94.36
2019-04-03T06:05:26.995Z,94.31
2019-04-03T06:06:26.053Z,95.46
2019-04-03T06:07:24.621Z,93.55
2019-04-03T06:08:23.449Z,99.99
2019-04-03T06:09:23.264Z,99.99
2019-04-03T06:10:21.937Z,99.99
2019-04-03T06:11:21.414Z,99.99
2019-04-03T06:12:21.550Z,99.99
2019-04-03T06:13:20.640Z,99.99
2019-04-03T06:14:19.824Z,99.99
2019-04-03T06:15:20.165Z,99.99
2019-04-03T06:16:17.316Z,95.51
2019-04-03T06:17:16.198Z,94.55
2019-04-03T06:18:17.367Z,99.99
2019-04-03T06:19:13.954Z,99.99
2019-04-03T06:20:13.013Z,99.99
2019-04-03T06:21:13.038Z,99.99
2019-04-03T06:22:10.920Z,99.99
2019-04-03T06:23:09.846Z,99.99
2019-04-03T06:24:08.757Z,99.99
2019-04-03T06:25:10.261Z,99.99
2019-04-03T06:26:06.976Z,99.99
2019-04-03T06:27:05.425Z,99.99
2019-04-03T06:28:04.313Z,99.99
2019-04-03T06:29:03.117Z,99.99
2019-04-03T06:30:02.085Z,99.77
2019-04-03T06:31:00.849Z,94.6
2019-04-03T06:31:59.719Z,99.99
2019-04-03T06:33:00.669Z,99.99
2019-04-03T06:33:57.640Z,99.99
2019-04-03T06:34:56.345Z,99.99
2019-04-03T06:35:55.206Z,99.99
2019-04-03T06:36:54.954Z,99.99
2019-04-03T06:37:53.946Z,99.99
2019-04-03T06:38:54.219Z,99.99
2019-04-03T06:39:51.704Z,99.99
2019-04-03T06:40:52.035Z,97.09
2019-04-03T06:41:51.139Z,96.03
2019-04-03T06:42:49.901Z,93.45
2019-04-03T06:43:50.109Z,92.4
2019-04-03T06:44:47.645Z,93.5
2019-04-03T06:45:46.514Z,93.3
2019-04-03T06:46:45.531Z,92.97
2019-04-03T06:47:44.582Z,93.21
2019-04-03T06:48:43.410Z,93.35
2019-04-03T06:49:42.398Z,99.99
2019-04-03T06:50:41.421Z,99.99
2019-04-03T06:51:40.810Z,99.99
2019-04-03T06:55:12.091Z,99.99
2019-04-03T06:56:11.084Z,99.99
2019-04-03T06:57:09.813Z,99.99
2019-04-03T06:58:09.497Z,98.05
2019-04-03T06:59:07.790Z,93.93
2019-04-03T07:00:06.637Z,94.36
2019-04-03T07:01:05.433Z,95.31
2019-04-03T07:02:04.256Z,96.18
2019-04-03T07:03:03.938Z,99.99
2019-04-03T07:04:01.976Z,99.99
2019-04-03T07:05:02.559Z,99.99
2019-04-03T07:06:00.001Z,99.99
2019-04-03T07:06:58.662Z,99.99
2019-04-03T07:07:57.600Z,99.99
2019-04-03T07:08:56.305Z,99.99
2019-04-03T07:09:55.097Z,99.99
2019-04-03T07:11:08.865Z,99.99
2019-04-03T07:13:47.581Z,99.99
2019-04-03T07:14:57.130Z,99.99
2019-04-03T07:16:17.277Z,99.99
2019-04-03T07:17:47.269Z,99.99
2019-04-03T07:19:05.770Z,99.99
2019-04-03T07:20:56.192Z,90.09
2019-04-03T07:21:55.956Z,88.71
2019-04-03T07:22:54.416Z,99.99
2019-04-03T07:24:47.462Z,99.99
2019-04-03T07:25:47.343Z,99.99
2019-04-03T07:27:38.304Z,99.99
2019-04-03T07:29:27.769Z,99.99
2019-04-03T07:30:47.770Z,99.99
2019-04-03T07:31:56.224Z,99.99
2019-04-03T07:33:40.076Z,99.77
2019-04-03T07:34:57.363Z,94.69
2019-04-03T07:36:01.564Z,91.72
2019-04-03T07:38:08.676Z,91.01
2019-04-03T07:39:10.966Z,92.58
2019-04-03T07:40:20.690Z,90.24
2019-04-03T07:48:20.819Z,99.99
2019-04-03T07:49:22.460Z,99.99
2019-04-03T07:51:38.453Z,99.99
2019-04-03T07:55:55.946Z,99.99
2019-04-03T07:57:54.888Z,95.84
2019-04-03T07:59:26.686Z,93.26
2019-04-03T08:00:38.466Z,92.87
2019-04-03T08:04:42.975Z,91.44
2019-04-03T08:08:42.345Z,92.3
2019-04-03T08:12:54.110Z,92.49
2019-04-03T08:13:53.012Z,99.99
2019-04-03T08:14:52.234Z,99.99
2019-04-03T08:15:51.604Z,99.99
2019-04-03T08:17:29.291Z,99.99
2019-04-03T08:19:10.071Z,99.99
2019-04-03T08:26:00.795Z,99.99
2019-04-03T08:27:59.892Z,99.99
2019-04-03T08:33:25.749Z,99.99
2019-04-03T08:38:01.856Z,94.4
2019-04-03T08:40:21.599Z,93.44
2019-04-03T08:41:32.312Z,93.54
2019-04-03T08:45:11.608Z,91.09
2019-04-03T08:48:06.254Z,90.81
2019-04-03T08:50:52.850Z,96.8
2019-04-03T08:51:55.015Z,99.99
2019-04-03T08:56:03.662Z,99.99
2019-04-03T08:57:02.520Z,97.38
2019-04-03T09:06:28.134Z,99.77
2019-04-03T09:07:26.278Z,99.99
2019-04-03T09:11:33.997Z,99.99
2019-04-03T09:12:32.585Z,99.99
2019-04-03T09:15:58.590Z,97.38
2019-04-03T09:19:18.145Z,99.99
2019-04-03T09:21:18.340Z,99.99
2019-04-03T09:23:59.347Z,99.99
2019-04-03T09:31:05.736Z,93.98
2019-04-03T09:38:52.438Z,86.88
2019-04-03T09:42:17.366Z,99.99
2019-04-03T09:46:54.075Z,99.99
2019-04-03T09:51:18.239Z,91.87
2019-04-03T09:53:50.785Z,87.47
2019-04-03T09:55:08.857Z,88.95
2019-04-03T09:56:27.186Z,99.99
2019-04-03T09:58:25.224Z,99.99
2019-04-03T09:59:40.583Z,98.14
2019-04-03T10:00:50.117Z,99.99
2019-04-03T10:03:18.130Z,89.53
2019-04-03T10:05:06.978Z,89.24
2019-04-03T10:06:25.243Z,86.99
2019-04-03T10:07:23.977Z,87.56
2019-04-03T10:10:50.089Z,85.6
2019-04-03T10:15:29.002Z,97.71
2019-04-03T10:17:37.350Z,91.58
2019-04-03T10:21:09.898Z,82.49
2019-04-03T10:25:41.649Z,78.7
2019-04-03T10:35:16.263Z,98.96
2019-04-03T10:42:31.222Z,75.77
2019-04-03T10:45:23.049Z,77.78
2019-04-03T10:46:44.942Z,77.31
2019-04-03T10:49:20.484Z,80.08
2019-04-03T10:50:51.889Z,84.39
2019-04-03T10:52:01.269Z,81.23
2019-04-03T10:53:39.433Z,79.99
2019-04-03T10:55:16.627Z,76.92
2019-04-03T10:56:46.720Z,76.25
2019-04-03T10:58:12.342Z,75.96
2019-04-03T10:59:36.954Z,77.4
2019-04-03T11:00:52.904Z,77.4
2019-04-03T11:02:56.270Z,78.07
2019-04-03T11:04:36.504Z,78.36
2019-04-03T11:06:02.990Z,78.07
2019-04-03T11:07:10.319Z,78.07
2019-04-03T11:08:33.388Z,76.44
2019-04-03T11:10:07.575Z,76.44
2019-04-03T11:11:38.621Z,77.21
2019-04-03T11:12:54.734Z,77.5
2019-04-03T11:14:06.470Z,76.82
2019-04-03T11:15:30.344Z,77.17
2019-04-03T11:16:29.533Z,77.36
2019-04-03T11:17:42.434Z,78.42
2019-04-03T11:18:42.645Z,78.22
2019-04-03T11:19:44.132Z,78.61
2019-04-03T11:21:12.727Z,78.61
2019-04-03T11:22:09.903Z,78.32
2019-04-03T11:23:36.426Z,78.22
2019-04-03T11:25:13.338Z,77.36
2019-04-03T11:26:09.526Z,77.46
2019-04-03T11:27:45.555Z,75.89
2019-04-03T11:30:55.416Z,76.79
2019-04-03T11:31:25.313Z,76.31
2019-04-03T11:32:49.667Z,76.5
2019-04-03T11:37:01.260Z,76.21
2019-04-03T11:38:25.890Z,76.12
2019-04-03T11:39:17.986Z,76.02
2019-04-03T11:40:18.045Z,76.5
2019-04-03T11:41:24.400Z,76.89
2019-04-03T11:42:29.285Z,77.08
2019-04-03T11:43:52.711Z,77.36
2019-04-03T11:45:04.980Z,77.65
2019-04-03T11:46:27.321Z,77.08
2019-04-03T11:47:53.519Z,76.89
2019-04-03T11:49:55.560Z,77.65
2019-04-03T11:51:16.714Z,76.79
2019-04-03T11:52:15.400Z,76.98
2019-04-03T11:53:14.756Z,76.5
2019-04-03T11:54:13.784Z,77.36
2019-04-03T11:55:12.472Z,76.94
2019-04-03T11:56:13.244Z,77.33
2019-04-03T11:57:11.168Z,77.33
2019-04-03T11:58:10.534Z,77.42
2019-04-03T11:59:09.550Z,77.13
2019-04-03T12:00:54.698Z,77.9
2019-04-03T12:01:53.766Z,78.66
2019-04-03T12:02:52.802Z,79.24
2019-04-03T12:03:51.728Z,79.28
2019-04-03T12:04:50.694Z,79.43
2019-04-03T12:05:49.456Z,79.91
2019-04-03T12:07:06.203Z,80.58
2019-04-03T12:08:20.145Z,79.62
2019-04-03T12:09:20.027Z,80
2019-04-03T12:11:54.445Z,80.48
2019-04-03T12:13:20.872Z,81.05
2019-04-03T12:14:34.729Z,80.67
2019-04-03T12:15:46.068Z,80.77
2019-04-03T12:16:56.952Z,80.9
2019-04-03T12:18:25.236Z,80.33
2019-04-03T12:20:32.907Z,79.37
2019-04-03T12:21:59.372Z,80.67
2019-04-03T12:27:05.401Z,78.86
2019-04-03T12:28:14.142Z,78.47
2019-04-03T12:31:12.820Z,79.95
2019-04-03T12:32:21.053Z,78.47
2019-04-03T12:33:25.429Z,80.04
2019-04-03T12:34:49.096Z,80.24
2019-04-03T12:35:59.609Z,80.33
2019-04-03T12:36:58.290Z,80.33
2019-04-03T12:38:01.001Z,79.8
2019-04-03T12:40:00.576Z,79.22
2019-04-03T12:41:30.919Z,78.45
2019-04-03T12:42:50.661Z,77.59
2019-04-03T12:43:51.300Z,77.02
2019-04-03T12:44:54.377Z,78.27
2019-04-03T12:46:03.269Z,78.55
2019-04-03T12:49:02.144Z,79.03
2019-04-03T12:50:02.086Z,78.84
2019-04-03T12:51:09.051Z,78.45
2019-04-03T12:52:50.640Z,78.61
2019-04-03T12:54:53.462Z,78.7
2019-04-03T12:55:50.679Z,80.33
2019-04-03T12:57:15.685Z,79.37
2019-04-03T12:58:32.179Z,80.04
2019-04-03T13:00:01.695Z,78.64
2019-04-03T13:01:18.635Z,78.64
2019-04-03T13:03:00.093Z,77.5
2019-04-03T13:04:49.573Z,77.5
2019-04-03T13:13:08.938Z,75.96
2019-04-03T13:17:02.660Z,77.78
2019-04-03T13:18:38.919Z,78.07
2019-04-03T13:19:40.043Z,78.22
2019-04-03T13:21:26.665Z,79.95
2019-04-03T13:24:20.730Z,79.1
2019-04-03T13:25:41.523Z,80.63
2019-04-03T13:26:49.275Z,80.73
2019-04-03T13:28:08.214Z,80.19
2019-04-03T13:30:17.123Z,79.05
2019-04-03T13:32:18.716Z,78.66
2019-04-03T13:33:21.345Z,78.09
2019-04-03T13:34:29.677Z,78.28
2019-04-03T13:36:30.453Z,78.09
2019-04-03T13:39:19.969Z,77.13
2019-04-03T13:41:51.822Z,77.99
2019-04-03T13:51:35.566Z,76.27
2019-04-03T13:54:00.983Z,75.83
2019-04-03T13:58:23.353Z,75.89
2019-04-03T14:00:21.732Z,76.27
2019-04-03T14:02:13.934Z,77.08
2019-04-03T14:05:07.893Z,76.84
2019-04-03T14:07:15.573Z,77.33
2019-04-03T14:09:06.458Z,78.05
2019-04-03T14:10:33.381Z,78.24
2019-04-03T14:11:33.721Z,79.39
2019-04-03T14:12:36.471Z,79.39
2019-04-03T14:13:38.359Z,79.49
2019-04-03T14:14:37.253Z,79.87
2019-04-03T14:16:22.766Z,79.1
2019-04-03T14:17:36.198Z,79.2
2019-04-03T14:18:34.595Z,78.91
2019-04-03T14:21:19.130Z,78.97
2019-04-03T14:22:42.840Z,79.73
2019-04-03T14:24:00.567Z,79.83
2019-04-03T14:26:20.375Z,81.16
2019-04-03T14:28:26.983Z,80.79
2019-04-03T14:34:06.899Z,81.65
2019-04-03T14:35:54.056Z,81.84
2019-04-03T14:37:08.464Z,81.65
2019-04-03T14:39:29.763Z,81.36
2019-04-03T14:40:59.420Z,82.22
2019-04-03T14:42:07.677Z,82.12
2019-04-03T14:43:49.076Z,84.09
2019-04-03T14:45:01.786Z,83.04
2019-04-03T14:46:30.876Z,83.51
2019-04-03T14:48:02.897Z,84.47
2019-04-03T14:49:31.639Z,84.85
2019-04-03T14:50:33.369Z,85.24
2019-04-03T14:51:33.225Z,85.62
2019-04-03T14:52:32.294Z,85.33
2019-04-03T14:53:39.403Z,85.14
2019-04-03T14:56:21.724Z,85.42
2019-04-03T14:58:01.405Z,85.52
2019-04-03T15:00:31.622Z,86.38
2019-04-03T15:04:11.924Z,88.48
2019-04-03T15:07:19.802Z,86.47
2019-04-03T15:08:20.201Z,87.01
2019-04-03T15:09:18.795Z,87.48
2019-04-03T15:14:04.117Z,88.54
2019-04-03T15:18:03.300Z,88.06
2019-04-03T15:22:23.731Z,90.02
2019-04-03T15:23:45.438Z,90.97
2019-04-03T15:25:59.286Z,89.83
2019-04-03T15:27:32.669Z,90.02
2019-04-03T15:30:58.615Z,90.02
2019-04-03T15:32:00.678Z,91.5
2019-04-03T15:34:35.150Z,91.78
2019-04-03T15:37:30.759Z,91.83
2019-04-03T15:42:40.474Z,95.03
2019-04-03T15:47:18.294Z,93.79
2019-04-03T15:48:53.235Z,94.84
2019-04-03T15:50:17.150Z,94.65
2019-04-03T15:52:01.549Z,93.17
2019-04-03T15:53:48.584Z,93.46
2019-04-03T15:55:20.334Z,93.74
2019-04-03T15:56:58.140Z,93.07
2019-04-03T15:58:32.123Z,92.5
2019-04-03T16:00:45.156Z,92.55
2019-04-03T16:02:49.397Z,91.93
2019-04-03T16:06:54.176Z,93.41
2019-04-03T16:08:06.808Z,93.7
2019-04-03T16:13:34.054Z,94.27
2019-04-03T16:14:37.794Z,94.65
2019-04-03T16:17:05.768Z,94.98
2019-04-03T16:19:21.681Z,93.31
2019-04-03T16:21:29.301Z,95.27
2019-04-03T16:23:54.483Z,96.75
2019-04-03T16:29:33.622Z,93.74
2019-04-03T16:30:40.351Z,93.17
2019-04-03T16:31:47.791Z,93.07
2019-04-03T16:33:21.282Z,93.17
2019-04-03T16:37:21.347Z,94.27
2019-04-03T16:40:04.914Z,93.88
2019-04-03T16:43:23.998Z,94.84
2019-04-03T16:44:48.230Z,95.03
2019-04-03T16:47:46.701Z,94.84
2019-04-03T16:49:28.492Z,93.79
2019-04-03T16:50:39.831Z,94.74
2019-04-03T16:54:04.752Z,94.46
2019-04-03T16:55:50.622Z,93.98
2019-04-03T16:57:09.391Z,95.56
2019-04-03T16:58:51.119Z,95.41
2019-04-03T17:01:00.882Z,94.65
2019-04-03T17:02:25.649Z,94.46
2019-04-03T17:04:35.559Z,94.51
2019-04-03T17:05:55.314Z,94.32
2019-04-03T17:08:42.295Z,96.13
2019-04-03T17:09:50.024Z,95.37
2019-04-03T17:11:55.836Z,96.22
2019-04-03T17:14:05.903Z,96.13
2019-04-03T17:15:25.135Z,95.94
2019-04-03T17:16:55.543Z,96.32
2019-04-03T17:19:09.074Z,97.66
2019-04-03T17:20:43.861Z,97.32
2019-04-03T17:22:06.555Z,97.85
2019-04-03T17:23:12.246Z,97.7
2019-04-03T17:24:13.538Z,98.51
2019-04-03T17:25:45.670Z,98.51
2019-04-03T17:28:10.375Z,98.42
2019-04-03T17:29:47.171Z,98.03
2019-04-03T17:31:43.883Z,95.84
2019-04-03T17:33:00.419Z,94.7
2019-04-03T17:34:09.936Z,94.03
2019-04-03T17:35:27.617Z,93.65
2019-04-03T17:36:33.326Z,93.65
2019-04-03T17:38:03.745Z,93.74
2019-04-03T17:39:04.510Z,94.46
2019-04-03T17:40:02.271Z,94.27
2019-04-03T17:41:05.014Z,95.56
2019-04-03T17:42:15.747Z,96.08
2019-04-03T17:45:48.789Z,94.7
2019-04-03T17:48:25.568Z,93.93
2019-04-03T17:49:39.815Z,94.12
2019-04-03T17:51:25.946Z,94.51
2019-04-03T17:54:50.981Z,94.79
2019-04-03T17:56:18.049Z,93.84
2019-04-03T17:59:54.859Z,94.84
2019-04-03T18:03:11.873Z,97.22
2019-04-03T18:05:56.893Z,96.13
2019-04-03T18:10:06.078Z,95.17
2019-04-03T18:11:26.577Z,95.32
2019-04-03T18:18:41.061Z,94.74
2019-04-03T18:21:13.206Z,95.46
2019-04-03T18:27:06.426Z,95.03
2019-04-03T18:29:31.876Z,94.22
2019-04-03T18:38:07.963Z,96.12
2019-04-03T18:41:18.567Z,93.6
2019-04-03T18:43:23.084Z,93.6
2019-04-03T18:44:31.007Z,92.89
2019-04-03T18:49:10.474Z,92.89
2019-04-03T18:51:37.953Z,94.51
2019-04-03T18:53:26.480Z,93.37
2019-04-03T18:54:47.918Z,94.79
2019-04-03T18:58:45.131Z,95.17
2019-04-03T19:05:56.103Z,97.6
2019-04-03T19:07:01.349Z,97.7
2019-04-03T19:11:24.619Z,97.27
2019-04-03T19:19:24.043Z,97.13
2019-04-03T19:20:22.985Z,98.46
2019-04-03T19:21:24.787Z,99.22
2019-04-03T19:22:21.798Z,98.74
2019-04-03T19:23:20.808Z,98.94
2019-04-03T19:26:01.427Z,99.22
2019-04-03T19:28:42.539Z,99.22
2019-04-03T19:29:41.592Z,98.51
2019-04-03T19:30:39.999Z,98.41
2019-04-03T19:31:40.120Z,97.56
2019-04-03T19:55:08.694Z,93.32
2019-04-03T19:56:07.530Z,93.03
2019-04-03T19:57:06.362Z,92.84
2019-04-03T19:58:05.093Z,92.36
2019-04-03T19:59:04.902Z,93.22
2019-04-03T20:00:03.043Z,93.03
2019-04-03T20:01:03.415Z,93.17
2019-04-03T20:01:59.737Z,92.22
2019-04-03T20:02:58.369Z,91.07
2019-04-03T20:03:57.132Z,90.36
2019-04-03T20:04:55.964Z,91.79
2019-04-03T20:05:55.162Z,92.55
2019-04-03T20:06:54.714Z,91.88
2019-04-03T20:07:52.434Z,91.74
2019-04-03T20:08:50.992Z,92.69
2019-04-03T20:09:49.613Z,94.79
2019-04-03T20:10:49.152Z,96.22
2019-04-03T20:11:47.174Z,96.32
2019-04-03T20:12:45.866Z,95.94
2019-04-03T20:13:44.506Z,95.46
2019-04-03T20:16:25.218Z,94.6
2019-04-03T20:17:24.469Z,94.79
2019-04-03T20:18:23.980Z,94.89
2019-04-03T20:19:21.058Z,95.56
2019-04-03T20:20:19.995Z,96.41
2019-04-03T20:21:18.829Z,96.12
2019-04-03T20:22:17.414Z,97.36
2019-04-03T20:23:16.102Z,96.7
2019-04-03T20:24:14.906Z,96.51
2019-04-03T20:25:15.038Z,95.79
2019-04-03T20:26:12.392Z,95.12
2019-04-03T20:27:11.111Z,95.22
2019-04-03T20:28:09.857Z,95.22
2019-04-03T20:29:08.271Z,94.46
2019-04-03T20:30:07.190Z,94.56
2019-04-03T20:32:30.092Z,94.7
2019-04-03T20:33:28.725Z,95.03
2019-04-03T20:34:27.372Z,94.93
2019-04-03T20:35:25.944Z,96.17
2019-04-03T20:36:24.614Z,95.79
2019-04-03T20:37:25.738Z,96.17
2019-04-03T20:38:22.229Z,95.51
2019-04-03T20:39:21.145Z,95.32
2019-04-03T20:40:19.777Z,95.22
2019-04-03T20:41:18.441Z,94.08
2019-04-03T20:42:17.194Z,94.46
2019-04-03T20:43:15.727Z,94.27
2019-04-03T20:44:16.543Z,93.51
2019-04-03T20:45:13.057Z,93.88
2019-04-03T20:46:11.634Z,93.98
2019-04-03T20:47:10.344Z,93.98
2019-04-03T20:48:09.039Z,93.22
2019-04-03T20:49:07.644Z,92.93